Flight Track Log - Related Links

Times and Time Zones

All times are in EDT time to prevent confusion due to time zone crossing. See the KAP2826 flight status page for this flight to view local times or setup timezone preferences in your user account.

Time Position Orientation Groundspeed Altitude Reporting Facility
EDT Latitude Longitude Course Direction KTS MPH feet Rate Location/Type
Fri 04:18:00 PM 41.3736 -70.1201 339° North  Level FlightAware Approximate
Fri 04:19:00 PM 41.3946 -70.1306 339° North  Level FlightAware Approximate
Fri 04:20:00 PM 41.4156 -70.1411 339° North  Level FlightAware Approximate
Fri 04:21:00 PM 41.4366 -70.1516 339° North  Level FlightAware Approximate
Fri 04:22:00 PM 41.4576 -70.1621 339° North  Level FlightAware Approximate
Fri 04:23:00 PM 41.4785 -70.1726 339° North  Level FlightAware Approximate
Fri 04:24:00 PM 41.4995 -70.1831 339° North  Level FlightAware Approximate
Fri 04:25:00 PM 41.5205 -70.1936 339° North  Level FlightAware Approximate
Fri 04:26:00 PM 41.5411 -70.2052 333° Northwest  Level FlightAware Approximate
Fri 04:27:00 PM 41.5612 -70.2186 333° Northwest  Level FlightAware Approximate
Fri 04:28:00 PM 41.5812 -70.2319 333° Northwest  Level FlightAware Approximate
Fri 04:29:00 PM 41.6026 -70.2410 343° North  Level FlightAware Approximate
Fri 04:30:00 PM 41.6241 -70.2496 343° North  Level FlightAware Approximate
Fri 04:31:00 PM 41.6455 -70.2582 343° North  Level FlightAware Approximate
Fri 04:32:00 PM 41.6667 -70.2667 343° North  Level FlightAware Approximate
Fri 04:33:00 PM 41.6693 -70.2804 343° North  Level Estimated
Fri 04:34:00 PM 41.6693 -70.2804 343° North  Level Estimated
Fri 04:35:00 PM 41.6693 -70.2804 343° North  Level Estimated
Fri 04:36:00 PM 41.6693 -70.2804 343° North  Level Estimated
Fri 04:37:00 PM 41.6693 -70.2804 343° North  Level Estimated
Fri 04:38:00 PM 41.6693 -70.2804 343° North  Level Estimated
Fri 04:39:00 PM 41.6693 -70.2804 343° North  Level Estimated
Fri 04:40:00 PM 41.6693 -70.2804 343° North  Level Estimated

Login

Don't have an account? Register now (free) for customized features, flight alerts, and more!